createdAt,value
2018-12-27T00:01:12.113Z,101752.00
2018-12-27T00:03:38.880Z,101758.43
2018-12-27T00:06:05.620Z,101756.78
2018-12-27T00:08:32.381Z,101758.35
2018-12-27T00:10:59.132Z,101752.73
2018-12-27T00:13:25.888Z,101754.27
2018-12-27T00:15:52.652Z,101756.20
2018-12-27T00:18:19.397Z,101754.03
2018-12-27T00:20:46.145Z,101756.55
2018-12-27T00:23:12.930Z,101753.97
2018-12-27T00:25:39.693Z,101751.85
2018-12-27T00:28:06.477Z,101755.01
2018-12-27T00:30:33.212Z,101756.98
2018-12-27T00:33:03.209Z,101756.24
2018-12-27T00:35:26.765Z,101747.28
2018-12-27T00:37:53.518Z,101741.77
2018-12-27T00:40:20.259Z,101746.52
2018-12-27T00:42:47.013Z,101737.33
2018-12-27T00:45:13.765Z,101737.77
2018-12-27T00:47:40.520Z,101739.11
2018-12-27T00:50:07.259Z,101736.44
2018-12-27T00:52:34.173Z,101741.64
2018-12-27T00:55:01.009Z,101734.87
2018-12-27T00:57:27.757Z,101731.69
2018-12-27T00:59:54.521Z,101722.27
2018-12-27T01:02:21.260Z,101723.12
2018-12-27T01:04:48.024Z,101721.08
2018-12-27T01:07:14.779Z,101718.53
2018-12-27T01:09:41.544Z,101722.45
2018-12-27T01:12:08.280Z,101717.83
2018-12-27T01:14:35.040Z,101720.42
2018-12-27T01:17:01.784Z,101712.19
2018-12-27T01:19:28.546Z,101713.45
2018-12-27T01:21:55.285Z,101710.30
2018-12-27T01:24:22.064Z,101715.08
2018-12-27T01:26:48.804Z,101719.39
2018-12-27T01:29:15.574Z,101718.03
2018-12-27T01:31:42.308Z,101708.97
2018-12-27T01:34:09.100Z,101705.00
2018-12-27T01:36:35.834Z,101698.00
2018-12-27T01:39:04.413Z,101703.33
2018-12-27T01:41:31.168Z,101700.11
2018-12-27T01:43:57.935Z,101694.34
2018-12-27T01:46:24.671Z,101689.66
2018-12-27T01:48:51.440Z,101702.38
2018-12-27T01:51:18.176Z,101699.22
2018-12-27T01:53:44.949Z,101699.75
2018-12-27T01:56:11.694Z,101703.67
2018-12-27T01:58:38.448Z,101698.21
2018-12-27T02:01:05.206Z,101701.05
2018-12-27T02:03:31.972Z,101693.04
2018-12-27T02:05:59.055Z,101691.70
2018-12-27T02:08:25.664Z,101695.96
2018-12-27T02:10:52.432Z,101685.77
2018-12-27T02:13:19.194Z,101684.19
2018-12-27T02:15:45.964Z,101690.92
2018-12-27T02:18:12.728Z,101678.91
2018-12-27T02:20:39.686Z,101683.48
2018-12-27T02:23:06.435Z,101676.63
2018-12-27T02:25:33.222Z,101683.02
2018-12-27T02:27:59.957Z,101677.68
2018-12-27T02:30:26.731Z,101683.84
2018-12-27T02:32:53.476Z,101680.74
2018-12-27T02:35:20.242Z,101684.08
2018-12-27T02:37:46.991Z,101680.45
2018-12-27T02:40:13.761Z,101683.86
2018-12-27T02:42:40.537Z,101677.69
2018-12-27T02:45:07.314Z,101675.76
2018-12-27T02:47:34.043Z,101681.30
2018-12-27T02:50:00.799Z,101678.05
2018-12-27T02:52:27.547Z,101683.92
2018-12-27T02:54:54.308Z,101675.69
2018-12-27T02:57:21.070Z,101676.86
2018-12-27T02:59:47.840Z,101674.05
2018-12-27T03:02:14.580Z,101673.30
2018-12-27T03:04:41.353Z,101668.64
2018-12-27T03:07:08.089Z,101662.23
2018-12-27T03:09:34.855Z,101655.34
2018-12-27T03:12:01.631Z,101653.09
2018-12-27T03:14:28.389Z,101652.55
2018-12-27T03:16:55.169Z,101651.27
2018-12-27T03:19:21.912Z,101645.98
2018-12-27T03:21:48.681Z,101645.54
2018-12-27T03:24:15.433Z,101639.90
2018-12-27T03:26:42.199Z,101634.87
2018-12-27T03:29:08.976Z,101639.50
2018-12-27T03:31:35.770Z,101640.37
2018-12-27T03:34:02.517Z,101637.50
2018-12-27T03:36:29.280Z,101641.70
2018-12-27T03:38:56.029Z,101632.71
2018-12-27T03:41:22.814Z,101622.20
2018-12-27T03:43:49.666Z,101611.69
2018-12-27T03:46:16.444Z,101608.68
2018-12-27T03:48:43.171Z,101592.91
2018-12-27T03:51:09.936Z,101598.48
2018-12-27T03:53:36.684Z,101592.59
2018-12-27T03:56:03.478Z,101600.55
2018-12-27T03:58:30.195Z,101594.44
2018-12-27T04:00:56.947Z,101599.48
2018-12-27T04:03:23.696Z,101597.14
2018-12-27T04:05:50.465Z,101595.96
2018-12-27T04:08:17.228Z,101591.50
2018-12-27T04:10:43.995Z,101592.73
2018-12-27T04:13:10.856Z,101596.16
2018-12-27T04:15:37.524Z,101600.19
2018-12-27T04:18:04.263Z,101593.67
2018-12-27T04:20:31.024Z,101592.48
2018-12-27T04:22:57.768Z,101596.65
2018-12-27T04:25:24.638Z,101596.75
2018-12-27T04:27:51.386Z,101600.11
2018-12-27T04:30:18.212Z,101582.41
2018-12-27T04:34:21.170Z,101590.59
2018-12-27T04:36:47.924Z,101590.94
2018-12-27T04:39:14.670Z,101595.63
2018-12-27T04:41:41.434Z,101590.74
2018-12-27T04:44:08.179Z,101585.98
2018-12-27T04:46:34.928Z,101580.16
2018-12-27T04:49:01.676Z,101587.72
2018-12-27T04:51:28.432Z,101583.72
2018-12-27T04:53:55.216Z,101578.28
2018-12-27T04:56:21.964Z,101575.15
2018-12-27T04:58:48.812Z,101577.29
2018-12-27T05:01:15.565Z,101570.08
2018-12-27T05:03:42.311Z,101574.05
2018-12-27T05:06:09.068Z,101574.53
2018-12-27T05:08:35.807Z,101568.88
2018-12-27T05:11:02.552Z,101579.90
2018-12-27T05:13:29.280Z,101589.36
2018-12-27T05:15:56.036Z,101586.19
2018-12-27T05:18:22.767Z,101590.11
2018-12-27T05:20:49.520Z,101608.08
2018-12-27T05:23:16.277Z,101610.34
2018-12-27T05:25:43.026Z,101608.97
2018-12-27T05:28:09.761Z,101609.24
2018-12-27T05:30:36.500Z,101612.06
2018-12-27T05:33:03.259Z,101616.78
2018-12-27T05:35:29.984Z,101614.27
2018-12-27T05:37:56.753Z,101606.94
2018-12-27T05:40:23.496Z,101611.02
2018-12-27T05:42:50.241Z,101605.86
2018-12-27T05:45:16.996Z,101603.58
2018-12-27T05:47:43.745Z,101608.17
2018-12-27T05:50:10.490Z,101608.42
2018-12-27T05:52:37.256Z,101615.12
2018-12-27T05:55:04.012Z,101604.48
2018-12-27T05:57:30.772Z,101602.83
2018-12-27T05:59:57.495Z,101605.02
2018-12-27T06:02:24.284Z,101599.42
2018-12-27T06:04:51.040Z,101603.70
2018-12-27T06:07:17.788Z,101605.00
2018-12-27T06:09:44.528Z,101604.19
2018-12-27T06:12:11.296Z,101599.66
2018-12-27T06:14:38.024Z,101600.90
2018-12-27T06:17:04.851Z,101597.83
2018-12-27T06:19:31.681Z,101600.34
2018-12-27T06:21:58.441Z,101604.25
2018-12-27T06:24:25.161Z,101606.59
2018-12-27T06:26:51.908Z,101608.69
2018-12-27T06:29:18.648Z,101607.73
2018-12-27T06:31:45.408Z,101605.72
2018-12-27T06:34:12.157Z,101604.56
2018-12-27T06:36:38.885Z,101609.41
2018-12-27T06:39:06.037Z,101603.54
2018-12-27T06:41:32.961Z,101605.71
2018-12-27T06:43:59.722Z,101604.66
2018-12-27T06:46:26.464Z,101596.98
2018-12-27T06:48:53.216Z,101599.41
2018-12-27T06:51:19.968Z,101597.84
2018-12-27T06:53:46.728Z,101598.43
2018-12-27T06:56:13.464Z,101594.73
2018-12-27T06:58:40.226Z,101603.34
2018-12-27T07:01:06.960Z,101605.95
2018-12-27T07:03:33.736Z,101601.99
2018-12-27T07:06:00.468Z,101603.89
2018-12-27T07:08:27.224Z,101609.36
2018-12-27T07:10:53.972Z,101611.54
2018-12-27T07:13:20.736Z,101609.80
2018-12-27T07:15:47.464Z,101601.86
2018-12-27T07:18:14.225Z,101604.05
2018-12-27T07:20:40.956Z,101600.32
2018-12-27T07:23:07.717Z,101602.16
2018-12-27T07:25:34.444Z,101602.39
2018-12-27T07:28:01.200Z,101605.44
2018-12-27T07:30:27.952Z,101604.21
2018-12-27T07:32:54.704Z,101602.87
2018-12-27T07:35:21.444Z,101596.48
2018-12-27T07:37:48.208Z,101593.59
2018-12-27T07:40:14.940Z,101594.14
2018-12-27T07:42:41.692Z,101595.70
2018-12-27T07:45:08.598Z,101592.19
2018-12-27T07:47:35.683Z,101589.67
2018-12-27T07:50:02.503Z,101590.70
2018-12-27T07:52:29.259Z,101595.03
2018-12-27T07:54:56.037Z,101593.45
2018-12-27T07:57:22.795Z,101590.80
2018-12-27T07:59:49.535Z,101597.30
2018-12-27T08:02:16.291Z,101596.83
2018-12-27T08:04:43.044Z,101594.48
2018-12-27T08:07:09.878Z,101598.12
2018-12-27T08:09:36.603Z,101597.11
2018-12-27T08:12:03.352Z,101594.42
2018-12-27T08:14:30.157Z,101592.19
2018-12-27T08:16:56.986Z,101594.87
2018-12-27T08:19:23.776Z,101595.38
2018-12-27T08:21:50.520Z,101590.67
2018-12-27T08:24:17.300Z,101591.41
2018-12-27T08:26:44.144Z,101592.17
2018-12-27T08:29:10.897Z,101595.70
2018-12-27T08:31:37.653Z,101600.51
2018-12-27T08:34:04.475Z,101597.73
2018-12-27T08:36:31.225Z,101602.16
2018-12-27T08:38:57.976Z,101601.09
2018-12-27T08:41:24.795Z,101598.30
2018-12-27T08:43:51.537Z,101597.29
2018-12-27T08:46:18.291Z,101598.37
2018-12-27T08:48:45.072Z,101599.31
2018-12-27T08:51:11.796Z,101592.85
2018-12-27T08:53:38.563Z,101601.04
2018-12-27T08:56:05.320Z,101598.55
2018-12-27T08:58:32.188Z,101596.67
2018-12-27T09:00:58.921Z,101600.09
2018-12-27T09:03:25.687Z,101600.45
2018-12-27T09:05:52.448Z,101592.29
2018-12-27T09:08:20.317Z,101600.59
2018-12-27T09:10:47.095Z,101601.53
2018-12-27T09:13:13.837Z,101595.89
2018-12-27T09:15:40.609Z,101602.02
2018-12-27T09:18:07.366Z,101599.63
2018-12-27T09:20:34.124Z,101601.97
2018-12-27T09:23:00.865Z,101605.46
2018-12-27T09:25:27.624Z,101602.46
2018-12-27T09:27:54.508Z,101601.62
2018-12-27T09:30:21.269Z,101602.97
2018-12-27T09:32:48.016Z,101594.60
2018-12-27T09:35:14.766Z,101591.58
2018-12-27T09:37:41.506Z,101592.19
2018-12-27T09:40:08.272Z,101583.88
2018-12-27T09:42:35.012Z,101591.59
2018-12-27T09:45:01.779Z,101588.36
2018-12-27T09:47:28.596Z,101590.92
2018-12-27T09:49:55.422Z,101599.96
2018-12-27T09:52:22.156Z,101595.62
2018-12-27T09:54:48.926Z,101599.41
2018-12-27T09:57:15.833Z,101594.44
2018-12-27T09:59:42.601Z,101595.31
2018-12-27T10:02:09.365Z,101588.70
2018-12-27T10:04:36.195Z,101587.25
2018-12-27T10:07:02.935Z,101581.23
2018-12-27T10:09:29.797Z,101579.77
2018-12-27T10:11:56.550Z,101583.69
2018-12-27T10:14:23.308Z,101580.77
2018-12-27T10:16:50.097Z,101581.11
2018-12-27T10:19:16.894Z,101585.89
2018-12-27T10:21:43.620Z,101584.19
2018-12-27T10:24:10.448Z,101579.44
2018-12-27T10:26:37.216Z,101579.37
2018-12-27T10:29:03.998Z,101575.34
2018-12-27T10:31:30.860Z,101578.18
2018-12-27T10:33:57.708Z,101575.98
2018-12-27T10:36:24.505Z,101569.66
2018-12-27T10:38:52.779Z,101571.84
2018-12-27T10:41:19.540Z,101565.63
2018-12-27T10:43:46.353Z,101573.88
2018-12-27T10:46:13.104Z,101566.42
2018-12-27T10:48:39.888Z,101562.02
2018-12-27T10:51:06.690Z,101558.95
2018-12-27T10:53:33.432Z,101548.41
2018-12-27T10:56:00.204Z,101547.88
2018-12-27T10:58:26.969Z,101538.13
2018-12-27T11:00:53.832Z,101538.44
2018-12-27T11:03:20.638Z,101534.98
2018-12-27T11:05:48.723Z,101529.17
2018-12-27T11:08:14.272Z,101526.67
2018-12-27T11:10:41.065Z,101527.10
2018-12-27T11:13:07.808Z,101521.65
2018-12-27T11:15:34.613Z,101514.17
2018-12-27T11:18:01.359Z,101520.09
2018-12-27T11:20:28.380Z,101518.33
2018-12-27T11:22:55.179Z,101513.40
2018-12-27T11:25:21.940Z,101518.75
2018-12-27T11:27:48.741Z,101510.36
2018-12-27T11:30:15.492Z,101507.61
2018-12-27T11:32:42.264Z,101508.64
2018-12-27T11:35:09.076Z,101499.56
2018-12-27T11:37:35.836Z,101496.42
2018-12-27T11:40:02.675Z,101496.00
2018-12-27T11:42:29.515Z,101491.02
2018-12-27T11:44:56.397Z,101482.47
2018-12-27T11:47:23.196Z,101482.67
2018-12-27T11:49:49.997Z,101477.80
2018-12-27T11:52:17.461Z,101477.73
2018-12-27T11:54:44.380Z,101470.27
2018-12-27T11:57:11.164Z,101466.59
2018-12-27T11:59:37.989Z,101467.27
2018-12-27T12:02:04.810Z,101468.92
2018-12-27T12:04:31.652Z,101466.33
2018-12-27T12:06:58.600Z,101451.98
2018-12-27T12:09:26.374Z,101450.10
2018-12-27T12:11:54.472Z,101450.70
2018-12-27T12:14:20.874Z,101451.64
2018-12-27T12:16:47.661Z,101448.47
2018-12-27T12:19:14.472Z,101449.66
2018-12-27T12:21:41.236Z,101447.87
2018-12-27T12:24:08.038Z,101450.11
2018-12-27T12:26:34.849Z,101453.28
2018-12-27T12:29:02.003Z,101451.90
2018-12-27T12:31:28.762Z,101445.97
2018-12-27T12:33:55.852Z,101446.14
2018-12-27T12:36:22.745Z,101444.48
2018-12-27T12:38:49.865Z,101448.64
2018-12-27T12:41:16.799Z,101435.39
2018-12-27T12:43:43.596Z,101437.58
2018-12-27T12:46:10.414Z,101440.02
2018-12-27T12:48:37.195Z,101434.13
2018-12-27T12:51:04.382Z,101430.47
2018-12-27T12:53:33.014Z,101427.72
2018-12-27T12:55:59.809Z,101423.59
2018-12-27T12:58:26.723Z,101430.16
2018-12-27T13:00:53.626Z,101434.83
2018-12-27T13:03:20.444Z,101432.48
2018-12-27T13:05:47.280Z,101434.36
2018-12-27T13:08:14.049Z,101434.62
2018-12-27T13:10:40.841Z,101438.63
2018-12-27T13:13:07.721Z,101435.30
2018-12-27T13:15:34.568Z,101431.40
2018-12-27T13:18:01.378Z,101431.12
2018-12-27T13:20:28.944Z,101426.59
2018-12-27T13:22:55.770Z,101420.20
2018-12-27T13:25:22.582Z,101420.17
2018-12-27T13:27:49.387Z,101416.47
2018-12-27T13:30:16.278Z,101418.30
2018-12-27T13:32:43.141Z,101411.15
2018-12-27T13:35:09.933Z,101414.35
2018-12-27T13:37:36.770Z,101416.63
2018-12-27T13:40:03.819Z,101414.31
2018-12-27T13:42:30.594Z,101409.49
2018-12-27T13:44:57.410Z,101406.75
2018-12-27T13:47:24.224Z,101409.55
2018-12-27T13:49:51.250Z,101411.20
2018-12-27T13:52:18.251Z,101404.75
2018-12-27T13:54:45.240Z,101406.19
2018-12-27T13:57:16.229Z,101401.37
2018-12-27T13:59:43.186Z,101398.16
2018-12-27T14:02:10.237Z,101404.61
2018-12-27T14:04:37.474Z,101402.90
2018-12-27T14:07:04.507Z,101402.83
2018-12-27T14:09:31.559Z,101399.63
2018-12-27T14:11:58.364Z,101398.94
2018-12-27T14:14:25.297Z,101396.56
2018-12-27T14:16:52.185Z,101391.02
2018-12-27T14:19:19.127Z,101394.30
2018-12-27T14:21:46.146Z,101393.14
2018-12-27T14:24:13.076Z,101396.67
2018-12-27T14:26:40.000Z,101400.84
2018-12-27T14:29:06.845Z,101406.14
2018-12-27T14:31:33.622Z,101406.19
2018-12-27T14:34:00.746Z,101405.75
2018-12-27T14:36:27.631Z,101404.37
2018-12-27T14:38:54.458Z,101404.40
2018-12-27T14:41:21.349Z,101402.92
2018-12-27T14:43:48.150Z,101410.97
2018-12-27T14:46:14.895Z,101405.17
2018-12-27T14:48:41.693Z,101400.70
2018-12-27T14:51:08.448Z,101393.97
2018-12-27T14:53:35.264Z,101395.46
2018-12-27T14:56:02.024Z,101399.89
2018-12-27T14:58:28.848Z,101402.47
2018-12-27T15:00:55.722Z,101396.92
2018-12-27T15:03:22.461Z,101404.88
2018-12-27T15:05:49.292Z,101407.82
2018-12-27T15:08:16.075Z,101406.09
2018-12-27T15:10:42.811Z,101408.14
2018-12-27T15:13:09.601Z,101424.63
2018-12-27T15:15:36.356Z,101412.11
2018-12-27T15:18:03.095Z,101408.03
2018-12-27T15:20:29.840Z,101417.23
2018-12-27T15:22:56.604Z,101411.94
2018-12-27T15:25:23.336Z,101401.36
2018-12-27T15:27:50.084Z,101411.72
2018-12-27T15:30:16.920Z,101404.94
2018-12-27T15:32:43.676Z,101401.73
2018-12-27T15:35:10.511Z,101394.05
2018-12-27T15:37:37.293Z,101394.30
2018-12-27T15:40:05.670Z,101396.92
2018-12-27T15:42:30.936Z,101405.59
2018-12-27T15:44:57.753Z,101410.81
2018-12-27T15:47:24.513Z,101405.92
2018-12-27T15:49:51.359Z,101403.44
2018-12-27T15:52:18.093Z,101397.81
2018-12-27T15:54:44.925Z,101404.47
2018-12-27T15:57:11.674Z,101406.66
2018-12-27T15:59:38.445Z,101412.84
2018-12-27T16:02:05.200Z,101413.06
2018-12-27T16:04:31.980Z,101414.11
2018-12-27T16:07:02.002Z,101405.74
2018-12-27T16:09:26.042Z,101410.03
2018-12-27T16:11:52.940Z,101406.77
2018-12-27T16:14:19.943Z,101402.63
2018-12-27T16:16:46.693Z,101402.30
2018-12-27T16:19:13.464Z,101396.46
2018-12-27T16:21:40.994Z,101400.03
2018-12-27T16:24:07.125Z,101402.53
2018-12-27T16:26:33.941Z,101400.45
2018-12-27T16:29:00.704Z,101394.72
2018-12-27T16:31:27.452Z,101397.53
2018-12-27T16:33:54.210Z,101397.45
2018-12-27T16:36:20.968Z,101395.56
2018-12-27T16:38:47.741Z,101399.11
2018-12-27T16:41:14.484Z,101403.63
2018-12-27T16:43:41.316Z,101397.40
2018-12-27T16:46:08.089Z,101394.45
2018-12-27T16:48:35.289Z,101392.75
2018-12-27T16:51:02.843Z,101397.28
2018-12-27T16:53:29.749Z,101397.39
2018-12-27T16:55:56.703Z,101403.84
2018-12-27T16:58:23.496Z,101394.03
2018-12-27T17:00:50.264Z,101395.41
2018-12-27T17:03:17.024Z,101399.67
2018-12-27T17:05:43.896Z,101404.69
2018-12-27T17:08:10.724Z,101410.81
2018-12-27T17:10:37.606Z,101414.52
2018-12-27T17:13:04.398Z,101410.29
2018-12-27T17:15:31.192Z,101413.40
2018-12-27T17:17:58.055Z,101413.34
2018-12-27T17:20:24.824Z,101414.28
2018-12-27T17:22:51.699Z,101411.31
2018-12-27T17:25:18.536Z,101418.48
2018-12-27T17:27:45.436Z,101423.86
2018-12-27T17:30:12.250Z,101412.03
2018-12-27T17:32:39.081Z,101417.20
2018-12-27T17:35:06.332Z,101418.98
2018-12-27T17:37:33.121Z,101419.22
2018-12-27T17:39:59.935Z,101417.18
2018-12-27T17:42:26.756Z,101420.28
2018-12-27T17:44:55.156Z,101421.26
2018-12-27T17:47:22.072Z,101415.95
2018-12-27T17:49:49.082Z,101409.57
2018-12-27T17:52:16.176Z,101416.03
2018-12-27T17:54:43.138Z,101417.94
2018-12-27T17:57:10.107Z,101414.74
2018-12-27T17:59:36.873Z,101418.62
2018-12-27T18:02:03.625Z,101412.64
2018-12-27T18:04:30.404Z,101411.72
2018-12-27T18:06:57.144Z,101416.22
2018-12-27T18:09:23.916Z,101416.00
2018-12-27T18:11:50.661Z,101418.43
2018-12-27T18:14:17.456Z,101419.09
2018-12-27T18:16:44.205Z,101419.52
2018-12-27T18:19:11.218Z,101416.34
2018-12-27T18:21:38.099Z,101421.26
2018-12-27T18:24:04.835Z,101421.95
2018-12-27T18:26:31.584Z,101425.80
2018-12-27T18:28:58.522Z,101430.48
2018-12-27T18:31:25.313Z,101429.55
2018-12-27T18:33:52.160Z,101437.60
2018-12-27T18:36:19.099Z,101439.55
2018-12-27T18:38:46.966Z,101432.77
2018-12-27T18:41:13.917Z,101426.23
2018-12-27T18:43:41.815Z,101433.11
2018-12-27T18:46:08.708Z,101434.27
2018-12-27T18:48:36.455Z,101432.33
2018-12-27T18:51:03.366Z,101424.35
2018-12-27T18:53:30.256Z,101429.95
2018-12-27T18:55:57.135Z,101428.38
2018-12-27T18:58:24.008Z,101427.16
2018-12-27T19:00:51.502Z,101428.08
2018-12-27T19:03:18.480Z,101423.77
2018-12-27T19:05:45.392Z,101426.48
2018-12-27T19:08:12.353Z,101437.30
2018-12-27T19:10:40.099Z,101430.37
2018-12-27T19:13:12.018Z,101434.02
2018-12-27T19:15:47.429Z,101442.22
2018-12-27T19:18:22.183Z,101434.23
2018-12-27T19:20:53.185Z,101431.45
2018-12-27T19:23:20.836Z,101435.91
2018-12-27T19:25:47.967Z,101428.19
2018-12-27T19:28:14.938Z,101430.28
2018-12-27T19:30:41.806Z,101424.74
2018-12-27T19:33:08.939Z,101425.20
2018-12-27T19:35:35.845Z,101428.47
2018-12-27T19:38:02.678Z,101430.44
2018-12-27T19:40:29.529Z,101430.04
2018-12-27T19:42:56.481Z,101430.44
2018-12-27T19:45:23.329Z,101429.91
2018-12-27T19:47:50.204Z,101438.47
2018-12-27T19:50:16.985Z,101439.47
2018-12-27T19:52:43.852Z,101430.53
2018-12-27T19:55:10.809Z,101433.88
2018-12-27T19:57:37.629Z,101434.27
2018-12-27T20:00:04.520Z,101439.43
2018-12-27T20:02:31.403Z,101443.80
2018-12-27T20:04:58.236Z,101435.45
2018-12-27T20:07:25.100Z,101445.25
2018-12-27T20:09:51.956Z,101448.03
2018-12-27T20:12:18.936Z,101441.33
2018-12-27T20:14:46.051Z,101450.52
2018-12-27T20:17:12.926Z,101462.85
2018-12-27T20:19:39.764Z,101453.28
2018-12-27T20:22:06.624Z,101452.02
2018-12-27T20:24:33.640Z,101447.09
2018-12-27T20:27:00.491Z,101443.37
2018-12-27T20:29:27.342Z,101447.05
2018-12-27T20:31:54.184Z,101441.95
2018-12-27T20:34:21.026Z,101442.92
2018-12-27T20:36:48.568Z,101450.16
2018-12-27T20:39:15.399Z,101439.56
2018-12-27T20:41:42.281Z,101442.30
2018-12-27T20:44:09.205Z,101439.02
2018-12-27T20:46:36.030Z,101439.94
2018-12-27T20:49:02.883Z,101437.09
2018-12-27T20:51:30.556Z,101441.53
2018-12-27T20:53:57.378Z,101448.68
2018-12-27T20:56:24.915Z,101451.73
2018-12-27T20:58:51.071Z,101443.37
2018-12-27T21:01:18.701Z,101446.20
2018-12-27T21:03:45.604Z,101443.20
2018-12-27T21:06:12.625Z,101444.55
2018-12-27T21:08:40.233Z,101450.66
2018-12-27T21:11:07.155Z,101446.57
2018-12-27T21:13:34.484Z,101449.20
2018-12-27T21:16:01.526Z,101447.23
2018-12-27T21:18:29.393Z,101451.71
2018-12-27T21:20:56.239Z,101434.11
2018-12-27T21:23:23.528Z,101447.34
2018-12-27T21:25:50.360Z,101449.27
2018-12-27T21:28:17.278Z,101451.03
2018-12-27T21:30:44.164Z,101446.13
2018-12-27T21:33:11.060Z,101448.83
2018-12-27T21:35:37.933Z,101438.28
2018-12-27T21:38:04.801Z,101448.14
2018-12-27T21:40:31.658Z,101438.84
2018-12-27T21:42:58.534Z,101432.68
2018-12-27T21:45:25.365Z,101425.52
2018-12-27T21:47:52.267Z,101435.11
2018-12-27T21:50:19.111Z,101426.59
2018-12-27T21:52:46.009Z,101425.63
2018-12-27T21:55:12.839Z,101427.55
2018-12-27T21:57:39.656Z,101420.13
2018-12-27T22:00:07.036Z,101415.89
2018-12-27T22:02:33.951Z,101420.94
2018-12-27T22:05:00.816Z,101411.61
2018-12-27T22:07:27.601Z,101409.02
2018-12-27T22:09:54.348Z,101408.67
2018-12-27T22:12:21.211Z,101422.48
2018-12-27T22:14:48.201Z,101415.30
2018-12-27T22:17:16.486Z,101431.39
2018-12-27T22:19:43.349Z,101423.64
2018-12-27T22:22:10.221Z,101423.47
2018-12-27T22:24:37.024Z,101430.42
2018-12-27T22:27:03.807Z,101428.95
2018-12-27T22:29:30.712Z,101423.03
2018-12-27T22:31:57.512Z,101418.09
2018-12-27T22:34:24.336Z,101413.55
2018-12-27T22:36:51.173Z,101420.92
2018-12-27T22:39:17.985Z,101413.66
2018-12-27T22:41:44.816Z,101413.48
2018-12-27T22:44:11.625Z,101409.82
2018-12-27T22:46:38.419Z,101410.19
2018-12-27T22:49:05.233Z,101418.02
2018-12-27T22:51:32.001Z,101413.91
2018-12-27T22:53:58.766Z,101415.45
2018-12-27T22:56:25.708Z,101418.13
2018-12-27T22:58:52.568Z,101416.33
2018-12-27T23:01:19.340Z,101413.40
2018-12-27T23:03:46.160Z,101415.78
2018-12-27T23:06:13.240Z,101407.38
2018-12-27T23:08:43.194Z,101408.66
2018-12-27T23:11:06.849Z,101410.81
2018-12-27T23:13:33.627Z,101413.78
2018-12-27T23:16:00.451Z,101405.20
2018-12-27T23:18:27.324Z,101409.48
2018-12-27T23:20:54.124Z,101407.63
2018-12-27T23:23:20.920Z,101401.54
2018-12-27T23:25:47.709Z,101412.84
2018-12-27T23:28:16.325Z,101405.75
2018-12-27T23:30:43.107Z,101406.42
2018-12-27T23:33:09.922Z,101409.04
2018-12-27T23:35:36.708Z,101401.20
2018-12-27T23:38:03.527Z,101398.08
2018-12-27T23:40:30.541Z,101406.68
2018-12-27T23:42:57.374Z,101408.17
2018-12-27T23:45:24.429Z,101403.09
2018-12-27T23:47:51.574Z,101407.30
2018-12-27T23:50:18.403Z,101407.02
2018-12-27T23:52:45.147Z,101401.75
2018-12-27T23:55:11.988Z,101397.95
2018-12-27T23:57:38.777Z,101400.01
